Time;durP1;ratioP1;P1;durP2;ratioP2;P2;SDS_P1;SDS_P2;PMS_P1;PMS_P2;Temp;Humidity;BMP_temperature;BMP_pressure;BME280_temperature;BME280_humidity;BME280_pressure;Samples;Min_cycle;Max_cycle;Signal;HPM_P1;HPM_P2
2023/06/25 00:01:12;;;;;;;12.23;7.15;;;;;;;20.76;100.00;94686.13;5090097;28;20657;-44
2023/06/25 00:03:39;;;;;;;14.75;7.78;;;;;;;20.80;100.00;94692.53;5070517;28;20202;-44
2023/06/25 00:06:06;;;;;;;8.63;6.35;;;;;;;20.79;100.00;94689.13;5069643;28;20182;-45
2023/06/25 00:08:33;;;;;;;11.27;6.80;;;;;;;20.77;100.00;94691.13;5070288;28;20676;-46
2023/06/25 00:11:00;;;;;;;9.10;7.10;;;;;;;20.77;100.00;94696.34;5069563;28;20198;-44
2023/06/25 00:13:26;;;;;;;6.70;5.95;;;;;;;20.80;100.00;94698.50;5069644;28;20232;-46
2023/06/25 00:15:53;;;;;;;8.10;5.90;;;;;;;20.85;100.00;94699.72;5069516;28;20182;-46
2023/06/25 00:18:25;;;;;;;5.88;5.22;;;;;;;20.85;100.00;94692.72;5070062;28;20674;-45
2023/06/25 00:20:51;;;;;;;9.90;6.60;;;;;;;20.73;100.00;94682.16;5069646;28;20194;-46
2023/06/25 00:23:18;;;;;;;7.28;5.78;;;;;;;20.78;100.00;94684.13;5069872;28;20185;-46
2023/06/25 00:25:45;;;;;;;6.40;5.43;;;;;;;20.82;100.00;94690.53;5069330;28;20360;-45
2023/06/25 00:28:12;;;;;;;5.72;5.15;;;;;;;20.81;100.00;94683.72;5069693;28;20194;-47
2023/06/25 00:30:39;;;;;;;6.82;6.07;;;;;;;20.83;100.00;94693.94;5069744;28;20609;-45
2023/06/25 00:33:06;;;;;;;6.82;5.68;;;;;;;20.62;100.00;94669.75;5069513;28;20192;-46
2023/06/25 00:36:00;;;;;;;7.65;5.80;;;;;;;20.76;100.00;94693.91;5069386;28;20267;-45
2023/06/25 00:38:27;;;;;;;7.55;6.10;;;;;;;20.71;100.00;94693.72;5069923;28;20190;-45
2023/06/25 00:40:53;;;;;;;7.35;5.65;;;;;;;20.70;100.00;94698.13;5069603;28;20190;-46
2023/06/25 00:43:22;;;;;;;7.50;6.63;;;;;;;20.74;100.00;94688.94;5069963;28;20190;-46
2023/06/25 00:45:49;;;;;;;9.00;5.85;;;;;;;20.73;100.00;94687.34;5069759;28;20236;-45
2023/06/25 00:48:16;;;;;;;6.43;5.82;;;;;;;20.72;100.00;94677.13;5070674;28;20187;-44
2023/06/25 00:50:44;;;;;;;8.45;5.65;;;;;;;20.74;100.00;94662.94;5069465;28;20194;-44
2023/06/25 00:53:11;;;;;;;10.90;6.82;;;;;;;20.70;100.00;94668.75;5069791;28;20562;-46
2023/06/25 00:55:38;;;;;;;8.82;5.53;;;;;;;20.70;100.00;94672.13;5069908;28;20214;-45
2023/06/25 00:58:05;;;;;;;8.25;6.40;;;;;;;20.66;100.00;94677.94;5069769;28;20193;-44
2023/06/25 01:00:34;;;;;;;9.50;6.88;;;;;;;20.66;100.00;94680.53;5069679;28;20637;-46
2023/06/25 01:03:12;;;;;;;8.35;5.35;;;;;;;20.68;100.00;94687.16;5069375;28;20339;-45
2023/06/25 01:05:45;;;;;;;6.50;5.90;;;;;;;20.66;100.00;94686.53;5069780;28;20190;-45
2023/06/25 01:08:15;;;;;;;10.75;6.95;;;;;;;20.57;100.00;94676.53;5069622;28;20187;-44
2023/06/25 01:10:44;;;;;;;11.18;7.00;;;;;;;20.51;100.00;94680.75;5069699;28;20186;-44
2023/06/25 01:13:11;;;;;;;8.30;6.55;;;;;;;20.56;100.00;94690.53;5070038;28;20205;-43
2023/06/25 01:15:38;;;;;;;11.02;6.50;;;;;;;20.53;100.00;94702.13;5069248;28;20716;-45
2023/06/25 01:18:05;;;;;;;13.40;6.47;;;;;;;20.58;100.00;94701.53;5069260;28;20190;-45
2023/06/25 01:20:32;;;;;;;9.23;6.15;;;;;;;20.54;100.00;94699.31;5069687;28;20182;-46
2023/06/25 01:23:01;;;;;;;7.78;5.90;;;;;;;20.48;100.00;94700.13;5068829;28;20282;-45
2023/06/25 01:25:28;;;;;;;8.80;6.05;;;;;;;20.40;100.00;94695.06;5068961;28;20617;-46
2023/06/25 01:27:54;;;;;;;6.38;5.72;;;;;;;20.23;100.00;94686.06;5069030;28;20194;-46
2023/06/25 01:30:25;;;;;;;8.88;5.95;;;;;;;20.30;100.00;94700.66;5067998;28;20199;-45
2023/06/25 01:32:51;;;;;;;8.70;5.60;;;;;;;20.31;100.00;94706.66;5069524;28;20187;-50
2023/06/25 01:35:20;;;;;;;13.48;5.45;;;;;;;20.25;100.00;94697.03;5074486;28;20206;-44
2023/06/25 01:37:47;;;;;;;7.38;5.32;;;;;;;20.29;100.00;94708.63;5069114;28;20205;-45
2023/06/25 01:40:18;;;;;;;9.33;5.43;;;;;;;20.25;100.00;94710.03;5051307;28;20198;-44
2023/06/25 01:42:48;;;;;;;6.40;5.20;;;;;;;20.22;100.00;94710.44;5068827;28;20190;-45
2023/06/25 01:45:17;;;;;;;10.88;5.13;;;;;;;20.21;100.00;94716.63;5070009;28;20186;-47
2023/06/25 01:47:44;;;;;;;8.98;5.72;;;;;;;20.21;100.00;94712.25;5072730;28;20197;-46
2023/06/25 01:50:11;;;;;;;8.45;4.70;;;;;;;20.20;100.00;94707.22;5072560;28;20194;-46
2023/06/25 01:52:39;;;;;;;8.65;5.10;;;;;;;19.74;100.00;94632.66;5072771;28;20178;-47
2023/06/25 01:55:07;;;;;;;8.00;5.63;;;;;;;20.17;100.00;94721.41;5071215;28;20228;-46
2023/06/25 01:57:36;;;;;;;5.57;5.05;;;;;;;20.14;100.00;94711.41;5072558;28;20534;-44
2023/06/25 02:00:04;;;;;;;7.60;5.38;;;;;;;19.95;100.00;94686.22;5072746;28;20186;-45
2023/06/25 02:02:30;;;;;;;8.32;4.93;;;;;;;20.08;100.00;94712.22;5072343;28;20194;-45
2023/06/25 02:04:57;;;;;;;9.25;5.88;;;;;;;20.10;100.00;94706.81;5072419;28;20217;-45
2023/06/25 02:07:24;;;;;;;12.52;6.53;;;;;;;20.10;100.00;94705.00;5072556;28;20720;-46
2023/06/25 02:09:51;;;;;;;9.02;5.68;;;;;;;20.06;100.00;94711.59;5072440;28;20195;-44
2023/06/25 02:12:20;;;;;;;9.03;5.57;;;;;;;19.99;100.00;94715.94;5072519;28;20586;-47
2023/06/25 02:14:49;;;;;;;11.00;6.68;;;;;;;20.01;100.00;94714.78;5071018;28;20218;-46
2023/06/25 02:17:15;;;;;;;12.50;6.15;;;;;;;20.03;100.00;94710.19;5073339;28;20213;-45
2023/06/25 02:19:42;;;;;;;10.75;5.43;;;;;;;20.04;100.00;94713.59;5072780;28;20199;-44
2023/06/25 02:22:09;;;;;;;10.40;6.20;;;;;;;19.99;100.00;94723.75;5072543;28;20216;-45
2023/06/25 02:24:36;;;;;;;7.03;6.07;;;;;;;19.97;100.00;94716.16;5072071;28;20289;-47
2023/06/25 02:27:03;;;;;;;8.32;5.93;;;;;;;20.04;100.00;94716.19;5072494;28;20226;-45
2023/06/25 02:29:30;;;;;;;8.75;6.30;;;;;;;20.01;100.00;94706.19;5072032;28;20190;-45
2023/06/25 02:32:00;;;;;;;9.68;6.90;;;;;;;19.99;100.00;94708.16;5072274;28;20190;-45
2023/06/25 02:34:27;;;;;;;11.82;7.45;;;;;;;19.98;100.00;94714.34;5071891;28;20240;-46
2023/06/25 02:36:54;;;;;;;7.82;6.40;;;;;;;19.96;100.00;94704.19;5071973;28;20618;-45
2023/06/25 02:39:20;;;;;;;10.32;6.88;;;;;;;19.99;100.00;94703.78;5072274;28;20190;-46
2023/06/25 02:41:47;;;;;;;10.77;6.90;;;;;;;20.00;100.00;94702.78;5071970;28;20206;-49
2023/06/25 02:44:14;;;;;;;18.00;7.72;;;;;;;20.00;100.00;94702.78;5071916;28;20193;-45
2023/06/25 02:46:41;;;;;;;10.05;6.43;;;;;;;19.88;100.00;94680.19;5071647;28;20236;-46
2023/06/25 02:49:09;;;;;;;7.82;5.55;;;;;;;19.94;100.00;94706.16;5072261;28;20189;-45
2023/06/25 02:51:35;;;;;;;11.80;6.90;;;;;;;19.94;100.00;94719.13;5071665;28;20569;-45
2023/06/25 02:54:02;;;;;;;9.60;6.22;;;;;;;19.97;100.00;94721.34;5071735;28;20198;-45
2023/06/25 02:56:29;;;;;;;12.55;6.50;;;;;;;19.94;100.00;94716.53;5070511;28;20191;-45
2023/06/25 02:58:56;;;;;;;8.10;6.70;;;;;;;19.95;100.00;94719.97;5071525;28;20199;-46
2023/06/25 03:01:23;;;;;;;7.68;6.18;;;;;;;19.95;100.00;94714.78;5071324;28;20271;-44
2023/06/25 03:03:49;;;;;;;12.65;7.03;;;;;;;19.93;100.00;94717.53;5071704;28;20202;-47
2023/06/25 03:06:18;;;;;;;12.93;7.07;;;;;;;19.94;100.00;94713.94;5071245;28;20202;-46
2023/06/25 03:08:45;;;;;;;11.85;7.13;;;;;;;19.94;100.00;94716.53;5071404;28;20627;-46
2023/06/25 03:11:12;;;;;;;12.48;6.82;;;;;;;19.58;100.00;94672.66;5071659;28;20658;-46
2023/06/25 03:13:39;;;;;;;12.32;6.68;;;;;;;19.94;100.00;94736.50;5071130;28;20666;-45
2023/06/25 03:16:05;;;;;;;12.88;7.57;;;;;;;19.91;100.00;94722.13;5071283;28;20217;-45
2023/06/25 03:18:32;;;;;;;13.77;7.30;;;;;;;19.96;100.00;94718.97;5070986;28;20214;-46
2023/06/25 03:20:59;;;;;;;11.30;6.65;;;;;;;19.72;100.00;94679.53;5071502;28;20248;-44
2023/06/25 03:23:27;;;;;;;11.48;7.82;;;;;;;19.88;100.00;94711.34;5071082;28;20259;-45
2023/06/25 03:25:54;;;;;;;8.75;6.85;;;;;;;19.86;100.00;94715.91;5070905;28;20225;-46
2023/06/25 03:28:21;;;;;;;10.65;7.68;;;;;;;19.80;100.00;94714.91;5070924;28;20553;-46
2023/06/25 03:30:48;;;;;;;9.77;6.85;;;;;;;19.71;100.00;94697.91;5071293;28;20209;-45
2023/06/25 03:33:14;;;;;;;8.55;6.72;;;;;;;19.75;100.00;94712.88;5074075;28;20701;-44
2023/06/25 03:35:41;;;;;;;11.77;7.43;;;;;;;19.80;100.00;94712.31;5071532;28;20226;-45
2023/06/25 03:38:08;;;;;;;8.65;7.40;;;;;;;19.87;100.00;94720.94;5070571;28;20190;-45
2023/06/25 03:40:36;;;;;;;10.18;6.85;;;;;;;19.71;100.00;94685.72;5071047;28;20190;-46
2023/06/25 03:43:03;;;;;;;10.48;6.72;;;;;;;19.91;100.00;94711.75;5070688;28;20573;-45
2023/06/25 03:45:30;;;;;;;9.55;7.20;;;;;;;19.94;100.00;94707.94;5070798;28;20243;-46
2023/06/25 03:47:57;;;;;;;10.65;7.60;;;;;;;19.98;100.00;94706.56;5071191;28;20202;-46
2023/06/25 03:50:23;;;;;;;11.90;8.02;;;;;;;19.98;100.00;94704.78;5070618;28;20851;-45
2023/06/25 03:52:51;;;;;;;9.23;8.23;;;;;;;19.88;100.00;94682.78;5070632;28;20182;-45
2023/06/25 03:55:18;;;;;;;14.52;7.55;;;;;;;20.01;100.00;94691.41;5068839;28;20222;-45
2023/06/25 03:57:50;;;;;;;12.82;7.38;;;;;;;20.05;100.00;94695.22;5070454;28;20187;-46
2023/06/25 04:00:17;;;;;;;12.85;8.05;;;;;;;20.10;100.00;94689.44;5070313;28;20201;-45
2023/06/25 04:02:44;;;;;;;14.93;8.75;;;;;;;19.61;100.00;94599.69;5070332;28;20290;-46
2023/06/25 04:05:11;;;;;;;12.45;7.90;;;;;;;20.17;100.00;94669.47;5070166;28;20194;-45
2023/06/25 04:07:38;;;;;;;11.73;8.07;;;;;;;20.21;100.00;94667.28;5070340;28;20301;-44
2023/06/25 04:10:05;;;;;;;11.95;7.85;;;;;;;20.20;100.00;94663.06;5070833;28;20673;-45
2023/06/25 04:12:32;;;;;;;16.13;7.75;;;;;;;20.22;100.00;94648.91;5070848;28;20190;-47
2023/06/25 04:15:00;;;;;;;11.68;8.10;;;;;;;20.21;100.00;94643.91;5070416;28;20226;-45
2023/06/25 04:17:27;;;;;;;10.40;8.52;;;;;;;20.22;100.00;94641.13;5070269;28;20291;-46
2023/06/25 04:19:54;;;;;;;9.95;7.80;;;;;;;20.23;100.00;94636.72;5068446;28;20201;-45
2023/06/25 04:22:21;;;;;;;10.65;7.47;;;;;;;20.20;100.00;94643.09;5070048;28;20213;-46
2023/06/25 04:24:48;;;;;;;12.73;8.55;;;;;;;20.23;100.00;94644.50;5070145;28;20436;-46
2023/06/25 04:27:15;;;;;;;14.27;8.05;;;;;;;20.19;100.00;94651.09;5069827;28;20222;-45
2023/06/25 04:29:42;;;;;;;15.07;10.38;;;;;;;20.10;100.00;94649.69;5070840;28;20263;-45
2023/06/25 04:32:11;;;;;;;14.65;9.43;;;;;;;20.10;100.00;94654.88;5070941;28;20201;-46
2023/06/25 04:34:37;;;;;;;15.00;9.95;;;;;;;20.15;100.00;94668.88;5070950;28;20569;-45
2023/06/25 04:37:05;;;;;;;14.90;9.00;;;;;;;20.14;100.00;94664.69;5069411;28;20217;-45
2023/06/25 04:39:31;;;;;;;11.55;8.57;;;;;;;20.09;100.00;94674.06;5069641;28;20703;-45
2023/06/25 04:41:58;;;;;;;10.07;7.68;;;;;;;20.02;100.00;94668.84;5069489;28;20366;-45
2023/06/25 04:44:26;;;;;;;9.70;8.70;;;;;;;19.95;100.00;94675.84;5069498;28;20194;-45
2023/06/25 04:46:52;;;;;;;14.63;9.20;;;;;;;19.92;100.00;94687.41;5069374;28;20663;-45
2023/06/25 04:49:21;;;;;;;10.20;8.02;;;;;;;19.94;100.00;94687.19;5069783;28;20183;-44
2023/06/25 04:51:47;;;;;;;12.52;8.20;;;;;;;19.94;100.00;94689.78;5069137;28;20692;-47
2023/06/25 04:54:14;;;;;;;10.48;7.75;;;;;;;19.92;100.00;94691.78;5069836;28;20719;-46
2023/06/25 04:56:41;;;;;;;10.68;8.30;;;;;;;19.85;100.00;94681.38;5069224;28;20684;-44
2023/06/25 04:59:08;;;;;;;11.27;8.98;;;;;;;19.91;100.00;94679.81;5069422;28;20194;-47
2023/06/25 05:01:35;;;;;;;10.35;8.68;;;;;;;19.91;100.00;94672.81;5069743;28;20649;-45
2023/06/25 05:04:02;;;;;;;12.80;8.00;;;;;;;19.93;100.00;94663.03;5069422;28;20185;-45
2023/06/25 05:06:30;;;;;;;13.90;9.45;;;;;;;19.91;100.00;94659.03;5069628;28;20224;-47
2023/06/25 05:08:57;;;;;;;11.95;9.15;;;;;;;19.94;100.00;94661.22;5069249;28;20247;-45
2023/06/25 05:11:23;;;;;;;10.02;7.70;;;;;;;19.96;100.00;94665.25;5069788;28;20193;-45
2023/06/25 05:13:50;;;;;;;11.23;7.80;;;;;;;19.99;100.00;94658.84;5068721;28;20251;-45
2023/06/25 05:16:17;;;;;;;14.93;9.07;;;;;;;20.05;100.00;94658.06;5069322;28;20210;-44
2023/06/25 05:18:44;;;;;;;12.68;7.68;;;;;;;20.10;100.00;94658.28;5069452;28;20622;-49
2023/06/25 05:21:10;;;;;;;10.25;7.88;;;;;;;20.14;100.00;94650.91;5072763;28;20259;-45
2023/06/25 05:23:44;;;;;;;10.93;8.38;;;;;;;20.20;100.00;94657.88;5073010;28;20193;-45
2023/06/25 05:26:11;;;;;;;14.43;7.88;;;;;;;20.26;100.00;94668.28;5073143;28;20321;-46
2023/06/25 05:28:38;;;;;;;9.60;7.25;;;;;;;20.30;100.00;94655.72;5072697;28;20191;-45
2023/06/25 05:31:05;;;;;;;14.27;8.20;;;;;;;20.21;100.00;94639.53;5078959;28;20193;-45
2023/06/25 05:33:32;;;;;;;9.85;7.57;;;;;;;20.53;100.00;94660.53;5074166;28;20187;-47
2023/06/25 05:35:58;;;;;;;9.20;7.28;;;;;;;20.57;100.00;94655.75;5078197;28;20335;-45
2023/06/25 05:38:25;;;;;;;11.48;7.85;;;;;;;20.68;100.00;94661.16;5077559;28;20290;-46
2023/06/25 05:40:53;;;;;;;9.77;8.18;;;;;;;20.75;100.00;94655.94;5072686;28;20191;-46
2023/06/25 05:43:20;;;;;;;12.15;8.77;;;;;;;20.89;100.00;94659.31;5072967;28;20557;-46
2023/06/25 05:45:47;;;;;;;9.43;7.43;;;;;;;21.01;100.00;94658.50;5072797;28;20183;-45
2023/06/25 05:48:13;;;;;;;11.48;6.57;;;;;;;21.16;100.00;94663.50;5073522;28;20210;-45
2023/06/25 05:50:40;;;;;;;8.15;6.40;;;;;;;21.29;100.00;94663.47;5072734;28;20186;-44
2023/06/25 05:53:07;;;;;;;7.63;6.65;;;;;;;21.48;100.00;94661.81;5072933;28;20667;-44
2023/06/25 05:55:34;;;;;;;9.13;7.13;;;;;;;21.74;100.00;94668.72;5073180;28;20214;-45
2023/06/25 05:58:03;;;;;;;12.35;7.45;;;;;;;21.93;100.00;94667.00;5073854;28;20209;-47
2023/06/25 06:00:29;;;;;;;12.27;7.47;;;;;;;22.06;100.00;94668.75;5072858;28;20284;-47
2023/06/25 06:02:58;;;;;;;8.85;6.53;;;;;;;22.11;100.00;94668.16;5072955;28;20195;-46
2023/06/25 06:05:24;;;;;;;10.40;7.85;;;;;;;22.12;100.00;94674.94;5072826;28;20637;-47
2023/06/25 06:07:51;;;;;;;10.30;7.28;;;;;;;22.18;100.00;94672.31;5072941;28;20576;-47
2023/06/25 06:10:18;;;;;;;8.45;7.40;;;;;;;22.17;100.00;94677.75;5072307;28;20616;-46
2023/06/25 06:12:45;;;;;;;9.40;7.22;;;;;;;22.14;99.81;94675.56;5072558;28;20186;-45
2023/06/25 06:15:13;;;;;;;7.97;6.38;;;;;;;22.25;99.58;94680.91;5072486;28;20191;-45
2023/06/25 06:17:40;;;;;;;11.85;6.57;;;;;;;22.40;98.55;94685.81;5072595;28;20244;-45
2023/06/25 06:20:07;;;;;;;8.18;6.30;;;;;;;22.34;96.50;94676.25;5072729;28;20194;-47
2023/06/25 06:22:34;;;;;;;8.98;6.63;;;;;;;22.52;96.22;94696.34;5072151;28;20634;-46
2023/06/25 06:25:01;;;;;;;9.32;6.80;;;;;;;22.67;95.87;94694.25;5072900;28;20191;-45
2023/06/25 06:27:28;;;;;;;7.80;6.72;;;;;;;22.82;95.14;94688.72;5071864;28;20226;-45
2023/06/25 06:29:54;;;;;;;11.35;7.80;;;;;;;22.95;94.95;94683.41;5072734;28;20255;-46
2023/06/25 06:32:23;;;;;;;11.35;7.47;;;;;;;23.10;93.51;94703.97;5072201;28;20190;-46
2023/06/25 06:34:49;;;;;;;9.38;6.72;;;;;;;23.20;93.17;94695.63;5072273;28;20186;-45
2023/06/25 06:37:16;;;;;;;10.65;7.43;;;;;;;23.25;92.99;94686.13;5072085;28;20233;-45
2023/06/25 06:39:43;;;;;;;10.75;7.47;;;;;;;23.36;92.31;94687.25;5072154;28;20191;-46
2023/06/25 06:42:10;;;;;;;9.60;6.63;;;;;;;23.46;92.56;94684.13;5071887;28;20209;-46
2023/06/25 06:44:37;;;;;;;8.93;6.78;;;;;;;23.58;93.06;94685.00;5072100;28;20191;-46
2023/06/25 06:47:04;;;;;;;7.78;6.40;;;;;;;23.71;91.48;94684.88;5072447;28;20554;-46
2023/06/25 06:49:33;;;;;;;10.05;5.95;;;;;;;23.90;89.87;94677.78;5073089;28;20190;-46
2023/06/25 06:52:01;;;;;;;8.32;6.20;;;;;;;24.04;87.40;94673.19;5072612;28;20182;-46
2023/06/25 06:54:28;;;;;;;7.53;5.82;;;;;;;24.27;86.93;94665.44;5072071;28;20190;-46
2023/06/25 06:56:54;;;;;;;7.10;5.93;;;;;;;24.63;84.40;94663.72;5071818;28;20264;-46
2023/06/25 06:59:21;;;;;;;7.07;5.75;;;;;;;24.87;81.75;94663.72;5071566;28;20244;-45
2023/06/25 07:01:48;;;;;;;5.78;5.00;;;;;;;25.01;78.57;94660.66;5071655;28;20193;-46
2023/06/25 07:04:15;;;;;;;6.82;5.28;;;;;;;25.21;78.90;94651.69;5071509;28;20198;-46
2023/06/25 07:06:43;;;;;;;7.45;4.88;;;;;;;25.30;79.14;94652.91;5071754;28;20617;-45
2023/06/25 07:09:10;;;;;;;7.75;5.28;;;;;;;25.42;78.27;94656.31;5071630;28;20186;-46
2023/06/25 07:11:37;;;;;;;8.73;4.75;;;;;;;25.58;76.59;94659.25;5071470;28;20194;-45
2023/06/25 07:14:03;;;;;;;6.80;4.75;;;;;;;26.05;75.25;94654.69;5071723;28;20289;-46
2023/06/25 07:16:30;;;;;;;5.60;4.57;;;;;;;26.34;73.74;94663.34;5071274;28;20740;-47
2023/06/25 07:18:57;;;;;;;8.07;5.00;;;;;;;26.42;72.45;94662.91;5071496;28;20182;-46
2023/06/25 07:21:24;;;;;;;6.13;4.95;;;;;;;26.41;71.56;94665.78;5071331;28;20186;-45
2023/06/25 07:23:52;;;;;;;6.68;4.43;;;;;;;26.17;72.10;94670.38;5071991;28;20198;-45
2023/06/25 07:26:19;;;;;;;5.22;4.72;;;;;;;26.02;73.77;94674.28;5070963;28;20226;-44
2023/06/25 07:28:46;;;;;;;5.07;3.92;;;;;;;25.82;72.87;94665.25;5075855;28;20217;-45
2023/06/25 07:31:12;;;;;;;6.70;4.78;;;;;;;25.58;73.20;94673.16;5071312;28;20195;-46
2023/06/25 07:33:39;;;;;;;5.47;4.80;;;;;;;25.12;75.10;94637.34;5070958;28;20584;-45
2023/06/25 07:36:06;;;;;;;6.03;5.43;;;;;;;25.23;75.73;94676.63;5070801;28;20214;-45
2023/06/25 07:38:34;;;;;;;6.95;6.25;;;;;;;25.12;78.68;94671.38;5071053;28;20676;-46
2023/06/25 07:41:03;;;;;;;8.45;6.97;;;;;;;24.86;80.40;94676.00;5070723;28;20559;-45
2023/06/25 07:43:29;;;;;;;11.10;7.07;;;;;;;24.55;81.28;94674.50;5070701;28;20197;-45
2023/06/25 07:45:57;;;;;;;8.50;6.22;;;;;;;24.26;82.17;94669.06;5070773;28;20213;-47
2023/06/25 07:48:23;;;;;;;9.50;6.45;;;;;;;24.02;83.28;94662.19;5071058;28;20186;-45
2023/06/25 07:50:52;;;;;;;11.27;7.65;;;;;;;23.84;84.54;94672.66;5070329;28;20191;-47
2023/06/25 07:53:19;;;;;;;8.23;7.05;;;;;;;23.85;84.18;94669.81;5070679;28;20627;-46
2023/06/25 07:55:46;;;;;;;9.88;6.75;;;;;;;23.95;83.16;94672.69;5070365;28;20191;-44
2023/06/25 07:58:15;;;;;;;9.40;6.25;;;;;;;23.89;83.81;94662.34;5070688;28;20202;-44
2023/06/25 08:00:42;;;;;;;7.78;6.97;;;;;;;23.93;83.97;94659.06;5070340;28;20213;-44
2023/06/25 08:03:08;;;;;;;9.52;7.32;;;;;;;24.09;83.66;94660.25;5070739;28;20194;-45
2023/06/25 08:05:35;;;;;;;10.13;6.50;;;;;;;24.24;82.91;94657.25;5070351;28;20190;-45
2023/06/25 08:08:02;;;;;;;7.45;5.85;;;;;;;24.25;82.23;94654.41;5070014;28;20259;-45
2023/06/25 08:10:32;;;;;;;9.73;6.10;;;;;;;24.26;81.93;94658.59;5070478;28;20186;-45
2023/06/25 08:12:58;;;;;;;6.53;5.70;;;;;;;24.15;81.58;94643.69;5070096;28;20186;-46
2023/06/25 08:15:27;;;;;;;5.90;5.38;;;;;;;24.34;79.92;94661.91;5069960;28;20573;-46
2023/06/25 08:17:53;;;;;;;7.65;5.70;;;;;;;24.44;79.31;94662.22;5070382;28;20217;-48
2023/06/25 08:20:20;;;;;;;6.68;5.97;;;;;;;24.58;78.68;94655.75;5070476;28;20198;-46
2023/06/25 08:22:47;;;;;;;5.35;4.63;;;;;;;24.64;76.97;94659.28;5069616;28;20194;-45
2023/06/25 08:25:21;;;;;;;5.28;4.78;;;;;;;24.68;76.46;94661.22;5070182;28;20186;-45
2023/06/25 08:27:48;;;;;;;6.93;5.45;;;;;;;24.88;77.08;94662.72;5069567;28;20320;-45
2023/06/25 08:30:15;;;;;;;5.32;4.72;;;;;;;25.15;75.91;94647.38;5070112;28;20198;-45
2023/06/25 08:32:43;;;;;;;5.38;4.72;;;;;;;25.64;74.64;94648.63;5069887;28;20201;-46
2023/06/25 08:35:10;;;;;;;4.82;4.43;;;;;;;26.25;73.44;94649.00;5069972;28;20199;-46
2023/06/25 08:37:36;;;;;;;7.13;4.47;;;;;;;26.70;71.04;94659.47;5069677;28;20210;-46
2023/06/25 08:40:04;;;;;;;5.57;5.05;;;;;;;26.80;68.39;94631.81;5070522;28;20183;-46
2023/06/25 08:42:31;;;;;;;4.68;4.05;;;;;;;27.20;67.36;94650.78;5070137;28;20616;-46
2023/06/25 08:44:57;;;;;;;4.13;3.72;;;;;;;27.41;66.62;94654.47;5069895;28;20194;-47
2023/06/25 08:47:28;;;;;;;4.93;4.00;;;;;;;27.47;65.46;94657.97;5069819;28;20685;-45
2023/06/25 08:49:57;;;;;;;7.05;3.70;;;;;;;27.41;64.74;94651.03;5068218;28;20701;-46
2023/06/25 08:52:25;;;;;;;6.55;4.20;;;;;;;27.46;64.68;94646.66;5069864;28;20186;-45
2023/06/25 08:54:52;;;;;;;3.70;3.20;;;;;;;27.87;62.16;94651.63;5068487;28;20186;-48
2023/06/25 08:57:19;;;;;;;3.35;3.05;;;;;;;28.10;61.86;94653.97;5069998;28;20447;-47
2023/06/25 08:59:46;;;;;;;4.72;3.65;;;;;;;28.30;61.52;94653.38;5069753;28;20190;-45
2023/06/25 09:02:12;;;;;;;4.07;3.75;;;;;;;28.25;61.49;94650.69;5071254;28;20187;-46
2023/06/25 09:04:39;;;;;;;6.25;3.25;;;;;;;28.17;62.39;94638.78;5069447;28;20206;-45
2023/06/25 09:07:09;;;;;;;4.07;3.67;;;;;;;28.35;64.00;94640.28;5071294;28;20185;-47
2023/06/25 09:09:36;;;;;;;3.95;3.65;;;;;;;28.46;63.23;94641.19;5069925;28;20194;-48
2023/06/25 09:12:02;;;;;;;5.05;3.97;;;;;;;28.52;62.98;94642.00;5069621;28;20205;-46
2023/06/25 09:14:31;;;;;;;5.10;3.67;;;;;;;28.43;62.76;94645.09;5069338;28;20193;-45
2023/06/25 09:16:57;;;;;;;3.65;3.33;;;;;;;28.30;62.04;94642.84;5069481;28;20313;-46
2023/06/25 09:19:24;;;;;;;4.18;3.85;;;;;;;28.21;61.49;94642.50;5069268;28;20190;-46
2023/06/25 09:21:51;;;;;;;4.22;3.83;;;;;;;28.18;61.99;94636.94;5069357;28;20186;-46
2023/06/25 09:24:21;;;;;;;3.85;3.50;;;;;;;28.29;63.68;94632.59;5071512;28;20193;-46
2023/06/25 09:26:49;;;;;;;4.68;4.28;;;;;;;28.33;62.48;94631.03;5069466;28;20226;-47
2023/06/25 09:29:17;;;;;;;3.97;3.60;;;;;;;28.19;61.87;94617.47;5069470;28;20194;-45
2023/06/25 09:31:47;;;;;;;4.00;3.60;;;;;;;28.11;61.19;94615.31;5069217;28;20205;-47
2023/06/25 09:34:15;;;;;;;3.38;3.08;;;;;;;28.00;61.43;94612.59;5069243;28;20194;-47
2023/06/25 09:36:42;;;;;;;3.72;3.42;;;;;;;27.67;61.38;94594.34;5068732;28;20214;-45
2023/06/25 09:39:11;;;;;;;3.80;3.50;;;;;;;27.75;61.76;94610.50;5069444;28;20198;-46
2023/06/25 09:41:41;;;;;;;4.75;4.00;;;;;;;27.70;62.67;94605.16;5069101;28;20187;-46
2023/06/25 09:44:08;;;;;;;3.55;3.25;;;;;;;27.85;63.06;94609.00;5069136;28;20606;-47
2023/06/25 09:46:38;;;;;;;5.28;4.10;;;;;;;28.04;63.51;94594.47;5069318;28;20198;-48
2023/06/25 09:49:07;;;;;;;4.22;3.83;;;;;;;28.24;64.21;94597.31;5069118;28;20273;-46
2023/06/25 09:51:41;;;;;;;3.80;3.40;;;;;;;28.17;62.55;94596.69;5069410;28;20285;-44
2023/06/25 09:54:10;;;;;;;5.82;3.70;;;;;;;28.12;61.90;94594.03;5069180;28;20194;-45
2023/06/25 09:56:44;;;;;;;5.97;4.00;;;;;;;27.89;62.18;94597.78;5068931;28;20222;-46
2023/06/25 09:59:11;;;;;;;3.95;3.65;;;;;;;27.75;62.68;94599.19;5069540;28;20206;-47
2023/06/25 10:01:38;;;;;;;6.10;3.58;;;;;;;27.59;63.73;94600.84;5068666;28;20183;-45
2023/06/25 10:04:05;;;;;;;4.18;3.67;;;;;;;27.46;62.77;94577.53;5069238;28;20187;-46
2023/06/25 10:06:33;;;;;;;4.13;3.72;;;;;;;27.51;63.33;94593.38;5070310;28;20182;-46
2023/06/25 10:09:01;;;;;;;4.00;3.60;;;;;;;27.46;64.24;94590.69;5072716;28;20189;-47
2023/06/25 10:11:28;;;;;;;4.88;3.85;;;;;;;27.45;63.44;94592.53;5072845;28;20236;-48
2023/06/25 10:13:58;;;;;;;3.95;3.60;;;;;;;27.37;63.47;94586.91;5072228;28;20195;-46
2023/06/25 10:16:25;;;;;;;5.38;3.70;;;;;;;27.32;64.46;94582.38;5072366;28;20582;-46
2023/06/25 10:18:58;;;;;;;6.60;4.03;;;;;;;27.38;64.64;94573.53;5072316;28;20661;-46
2023/06/25 10:21:25;;;;;;;4.07;3.67;;;;;;;27.51;65.05;94573.16;5072142;28;20657;-44
2023/06/25 10:24:00;;;;;;;3.97;3.33;;;;;;;27.65;65.17;94565.69;5072299;28;20183;-44
2023/06/25 10:26:29;;;;;;;5.53;4.18;;;;;;;27.71;65.33;94562.06;5071998;28;20229;-46
2023/06/25 10:29:01;;;;;;;7.25;4.10;;;;;;;27.74;65.97;94566.06;5072214;28;20202;-44
2023/06/25 10:31:37;;;;;;;5.80;3.80;;;;;;;27.71;63.84;94535.00;5072069;28;20284;-46
2023/06/25 10:34:06;;;;;;;3.75;3.38;;;;;;;27.94;63.36;94555.75;5073283;28;20240;-44
2023/06/25 10:36:32;;;;;;;3.90;3.50;;;;;;;27.81;62.44;94556.16;5072394;28;20209;-46
2023/06/25 10:38:59;;;;;;;3.83;3.33;;;;;;;27.88;62.61;94545.44;5071864;28;20190;-47
2023/06/25 10:41:28;;;;;;;4.13;3.70;;;;;;;27.89;63.19;94533.88;5071918;28;20285;-45
2023/06/25 10:43:55;;;;;;;7.18;4.10;;;;;;;27.99;63.30;94541.88;5071838;28;20222;-46
2023/06/25 10:46:30;;;;;;;4.80;3.83;;;;;;;28.08;62.72;94542.19;5072189;28;20198;-45
2023/06/25 10:48:59;;;;;;;5.22;3.78;;;;;;;28.03;62.39;94539.53;5071825;28;20742;-46
2023/06/25 10:51:26;;;;;;;4.22;3.83;;;;;;;28.07;62.52;94536.16;5071581;28;20198;-45
2023/06/25 10:53:56;;;;;;;3.65;3.30;;;;;;;28.11;63.22;94531.97;5071876;28;20654;-46
2023/06/25 10:56:23;;;;;;;8.82;4.53;;;;;;;28.20;62.12;94524.41;5071905;28;20205;-45
2023/06/25 10:58:57;;;;;;;4.70;4.30;;;;;;;28.36;61.45;94518.22;5069968;28;20269;-47
2023/06/25 11:01:24;;;;;;;4.07;3.72;;;;;;;28.39;61.03;94519.56;5071721;28;20213;-46
2023/06/25 11:03:53;;;;;;;5.13;3.67;;;;;;;28.23;61.67;94519.41;5070866;28;20197;-46
2023/06/25 11:06:23;;;;;;;4.82;4.05;;;;;;;28.15;61.96;94506.75;5071464;28;20191;-45
2023/06/25 11:08:51;;;;;;;4.07;3.78;;;;;;;28.05;62.19;94503.25;5071064;28;20230;-45
2023/06/25 11:11:22;;;;;;;4.25;3.83;;;;;;;28.03;62.16;94498.25;5071522;28;20190;-46
2023/06/25 11:13:51;;;;;;;5.07;3.55;;;;;;;27.99;61.20;94495.31;5071234;28;20190;-47
2023/06/25 11:16:19;;;;;;;3.40;3.10;;;;;;;28.03;62.36;94495.63;5071787;28;20217;-46
2023/06/25 11:18:50;;;;;;;4.03;3.63;;;;;;;28.05;62.23;94493.53;5070548;28;20221;-47
2023/06/25 11:21:18;;;;;;;5.65;3.88;;;;;;;28.05;63.24;94490.91;5076307;28;20193;-46
2023/06/25 11:23:45;;;;;;;5.75;3.72;;;;;;;28.04;62.35;94478.00;5069833;28;20186;-56
2023/06/25 11:26:15;;;;;;;4.05;3.67;;;;;;;27.91;61.17;94487.91;5071134;28;20226;-44
2023/06/25 11:28:42;;;;;;;4.18;3.85;;;;;;;27.80;60.35;94483.59;5069795;28;20194;-45